Time;durP1;ratioP1;P1;durP2;ratioP2;P2;SDS_P1;SDS_P2;PMS_P1;PMS_P2;Temp;Humidity;BMP_temperature;BMP_pressure;BME280_temperature;BME280_humidity;BME280_pressure;Samples;Min_cycle;Max_cycle;Signal;HPM_P1;HPM_P2
2022/12/14 00:00:51;;;;;;;1.20;1.20;;;;;;;;;;5105093;28;20205;-60
2022/12/14 00:03:18;;;;;;;1.10;0.93;;;;;;;;;;5088027;28;20570;-60
2022/12/14 00:05:46;;;;;;;0.70;0.70;;;;;;;;;;5087086;28;20234;-61
2022/12/14 00:08:13;;;;;;;3.73;1.00;;;;;;;;;;5105533;28;20236;-60
2022/12/14 00:10:40;;;;;;;0.50;0.50;;;;;;;;;;5101862;28;20230;-60
2022/12/14 00:13:08;;;;;;;0.97;0.97;;;;;;;;;;5090685;28;20206;-60
2022/12/14 00:15:37;;;;;;;1.23;1.13;;;;;;;;;;5102580;28;20289;-60
2022/12/14 00:18:06;;;;;;;2.93;1.10;;;;;;;;;;5093439;28;20205;-60
2022/12/14 00:20:33;;;;;;;1.83;1.53;;;;;;;;;;5097648;28;20629;-60
2022/12/14 00:23:00;;;;;;;3.60;0.73;;;;;;;;;;5103084;28;20210;-60
2022/12/14 00:25:27;;;;;;;0.80;0.53;;;;;;;;;;5107440;28;20699;-60
2022/12/14 00:27:54;;;;;;;2.33;1.07;;;;;;;;;;5106363;28;20232;-61
2022/12/14 00:30:21;;;;;;;1.27;1.17;;;;;;;;;;5093477;28;20275;-60
2022/12/14 00:32:48;;;;;;;1.30;1.20;;;;;;;;;;5106123;28;20236;-60
2022/12/14 00:35:18;;;;;;;0.90;0.90;;;;;;;;;;5089816;28;20527;-60
2022/12/14 00:37:45;;;;;;;1.97;1.03;;;;;;;;;;5093812;28;20204;-60
2022/12/14 00:40:13;;;;;;;0.63;0.63;;;;;;;;;;5099403;28;20210;-59
2022/12/14 00:42:40;;;;;;;2.27;0.97;;;;;;;;;;5090447;28;20211;-62
2022/12/14 00:45:08;;;;;;;1.13;0.80;;;;;;;;;;5108298;28;20587;-61
2022/12/14 00:47:35;;;;;;;0.63;0.63;;;;;;;;;;5088134;28;20198;-59
2022/12/14 00:50:02;;;;;;;1.43;0.97;;;;;;;;;;5087877;28;20218;-59
2022/12/14 00:52:30;;;;;;;1.70;0.83;;;;;;;;;;5087999;28;20582;-59
2022/12/14 00:54:57;;;;;;;0.10;0.10;;;;;;;;;;5087043;28;20322;-61
2022/12/14 00:57:24;;;;;;;1.50;1.40;;;;;;;;;;5087437;28;20207;-61
2022/12/14 00:59:51;;;;;;;0.20;0.20;;;;;;;;;;5087854;28;20213;-61
2022/12/14 01:02:18;;;;;;;1.37;0.87;;;;;;;;;;5094234;28;20247;-59
2022/12/14 01:04:46;;;;;;;1.10;1.00;;;;;;;;;;5096584;28;20592;-59
2022/12/14 01:07:13;;;;;;;1.83;1.10;;;;;;;;;;5094176;28;20210;-62
2022/12/14 01:09:41;;;;;;;1.73;0.90;;;;;;;;;;5086020;28;20230;-59
2022/12/14 01:12:08;;;;;;;0.30;0.30;;;;;;;;;;5092031;28;20582;-59
2022/12/14 01:14:35;;;;;;;0.50;0.50;;;;;;;;;;5104817;28;20217;-59
2022/12/14 01:17:02;;;;;;;1.03;0.90;;;;;;;;;;5106470;28;20207;-60
2022/12/14 01:19:30;;;;;;;3.10;1.20;;;;;;;;;;5103635;28;20210;-60
2022/12/14 01:21:57;;;;;;;1.27;1.13;;;;;;;;;;5105499;28;20217;-59
2022/12/14 01:24:25;;;;;;;0.67;0.40;;;;;;;;;;5105376;28;20285;-59
2022/12/14 01:26:53;;;;;;;2.43;2.10;;;;;;;;;;5103781;28;20222;-59
2022/12/14 01:29:20;;;;;;;2.20;0.67;;;;;;;;;;5094456;28;20474;-59
2022/12/14 01:31:47;;;;;;;4.23;1.03;;;;;;;;;;5092157;28;20421;-59
2022/12/14 01:34:14;;;;;;;1.03;0.97;;;;;;;;;;5099906;28;20202;-59
2022/12/14 01:36:42;;;;;;;0.90;0.90;;;;;;;;;;5095828;28;20214;-59
2022/12/14 01:39:12;;;;;;;0.80;0.80;;;;;;;;;;5095026;28;20391;-59
2022/12/14 01:41:40;;;;;;;0.13;0.07;;;;;;;;;;5091255;28;20289;-61
2022/12/14 01:44:22;;;;;;;0.30;0.30;;;;;;;;;;5098757;28;20221;-60
2022/12/14 01:46:53;;;;;;;1.00;0.70;;;;;;;;;;5104196;28;20640;-60
2022/12/14 01:49:21;;;;;;;5.93;1.00;;;;;;;;;;5105319;28;20860;-60
2022/12/14 01:51:52;;;;;;;1.37;1.27;;;;;;;;;;5090993;28;20222;-59
2022/12/14 01:54:19;;;;;;;1.73;1.53;;;;;;;;;;5094560;28;20202;-60
2022/12/14 01:56:47;;;;;;;2.20;1.70;;;;;;;;;;5107071;28;20225;-60
2022/12/14 01:59:17;;;;;;;1.07;0.70;;;;;;;;;;5099842;28;20831;-59
2022/12/14 02:01:45;;;;;;;0.30;0.30;;;;;;;;;;5098882;28;20271;-59
2022/12/14 02:04:14;;;;;;;0.50;0.50;;;;;;;;;;5102923;28;20208;-60
2022/12/14 02:06:42;;;;;;;0.50;0.50;;;;;;;;;;5109001;28;20205;-60
2022/12/14 02:09:11;;;;;;;1.53;1.47;;;;;;;;;;5103143;28;20260;-60
2022/12/14 02:11:44;;;;;;;2.30;1.10;;;;;;;;;;5091477;28;20234;-60
2022/12/14 02:14:12;;;;;;;0.70;0.50;;;;;;;;;;5104223;28;20202;-59
2022/12/14 02:16:39;;;;;;;0.93;0.93;;;;;;;;;;5103782;28;20210;-60
2022/12/14 02:19:06;;;;;;;0.20;0.20;;;;;;;;;;5106297;28;20582;-59
2022/12/14 02:21:43;;;;;;;1.20;1.00;;;;;;;;;;5105502;28;20568;-60
2022/12/14 02:24:44;;;;;;;0.63;0.50;;;;;;;;;;5104772;28;20202;-60
2022/12/14 02:27:14;;;;;;;0.13;0.13;;;;;;;;;;5032237;28;20792;-60
2022/12/14 02:29:59;;;;;;;0.40;0.40;;;;;;;;;;5045201;28;20207;-60
2022/12/14 02:32:47;;;;;;;0.93;0.93;;;;;;;;;;5082847;28;20229;-61
2022/12/14 02:35:25;;;;;;;2.27;1.10;;;;;;;;;;5090278;28;20199;-60
2022/12/14 02:37:57;;;;;;;1.20;1.20;;;;;;;;;;5094060;28;20201;-60
2022/12/14 02:40:27;;;;;;;0.23;0.23;;;;;;;;;;5102454;28;20202;-60
2022/12/14 02:42:58;;;;;;;0.40;0.40;;;;;;;;;;5091303;28;20202;-60
2022/12/14 02:45:27;;;;;;;0.77;0.77;;;;;;;;;;5105723;28;20219;-60
2022/12/14 02:47:55;;;;;;;0.80;0.80;;;;;;;;;;5095478;28;20198;-60
2022/12/14 02:50:26;;;;;;;1.70;0.80;;;;;;;;;;5096543;28;20226;-60
2022/12/14 02:52:57;;;;;;;0.60;0.50;;;;;;;;;;5091072;28;20199;-60
2022/12/14 02:55:26;;;;;;;1.20;1.03;;;;;;;;;;5087556;28;20231;-60
2022/12/14 02:57:55;;;;;;;1.27;1.00;;;;;;;;;;5091893;28;20206;-60
2022/12/14 03:00:23;;;;;;;0.97;0.93;;;;;;;;;;5092745;28;20202;-60
2022/12/14 03:02:50;;;;;;;0.50;0.50;;;;;;;;;;5098434;28;20207;-60
2022/12/14 03:05:17;;;;;;;2.90;1.80;;;;;;;;;;5105595;28;20210;-60
2022/12/14 03:07:47;;;;;;;0.27;0.27;;;;;;;;;;5097131;28;20201;-61
2022/12/14 03:10:21;;;;;;;1.73;1.63;;;;;;;;;;5094805;27;20206;-60
2022/12/14 03:12:54;;;;;;;0.40;0.40;;;;;;;;;;5091776;28;20214;-59
2022/12/14 03:15:22;;;;;;;1.07;0.97;;;;;;;;;;5099072;28;20209;-59
2022/12/14 03:17:52;;;;;;;1.23;0.80;;;;;;;;;;5094277;28;20695;-60
2022/12/14 03:20:21;;;;;;;4.63;0.43;;;;;;;;;;5093683;28;20210;-60
2022/12/14 03:22:52;;;;;;;1.50;1.40;;;;;;;;;;5091034;28;20217;-60
2022/12/14 03:25:21;;;;;;;0.17;0.17;;;;;;;;;;5090289;28;20294;-60
2022/12/14 03:27:51;;;;;;;1.17;1.17;;;;;;;;;;5092231;28;20597;-60
2022/12/14 03:30:19;;;;;;;2.83;1.17;;;;;;;;;;5098780;28;20653;-61
2022/12/14 03:32:48;;;;;;;0.30;0.27;;;;;;;;;;5099647;28;20896;-60
2022/12/14 03:35:17;;;;;;;2.10;1.30;;;;;;;;;;5106106;28;20206;-60
2022/12/14 03:37:47;;;;;;;0.87;0.50;;;;;;;;;;5100879;28;20209;-62
2022/12/14 03:40:16;;;;;;;0.40;0.40;;;;;;;;;;5097922;28;20220;-60
2022/12/14 03:42:46;;;;;;;1.60;1.23;;;;;;;;;;5088346;28;20292;-60
2022/12/14 03:45:18;;;;;;;0.33;0.33;;;;;;;;;;5092316;28;20214;-60
2022/12/14 03:47:52;;;;;;;1.60;1.50;;;;;;;;;;5098977;28;20206;-60
2022/12/14 03:50:23;;;;;;;1.90;1.20;;;;;;;;;;5098653;28;20206;-60
2022/12/14 03:52:54;;;;;;;0.30;0.30;;;;;;;;;;5099969;28;20210;-59
2022/12/14 03:55:27;;;;;;;0.83;0.83;;;;;;;;;;5096726;28;20232;-60
2022/12/14 03:58:04;;;;;;;1.27;0.73;;;;;;;;;;5091223;28;20197;-60
2022/12/14 04:00:32;;;;;;;0.30;0.30;;;;;;;;;;5088946;28;20612;-60
2022/12/14 04:03:02;;;;;;;1.10;1.10;;;;;;;;;;5091357;28;20215;-60
2022/12/14 04:05:32;;;;;;;1.57;0.83;;;;;;;;;;5095132;28;20203;-60
2022/12/14 04:08:03;;;;;;;3.13;0.90;;;;;;;;;;5086823;28;20240;-60
2022/12/14 04:18:59;;;;;;;0.83;0.83;;;;;;;;;;5103619;28;20705;-59
2022/12/14 04:21:30;;;;;;;1.47;0.40;;;;;;;;;;5090215;28;20664;-59
2022/12/14 04:26:51;;;;;;;0.30;0.30;;;;;;;;;;5087101;28;20229;-60
2022/12/14 04:32:08;;;;;;;0.90;0.70;;;;;;;;;;5092570;28;20242;-60
2022/12/14 04:34:36;;;;;;;1.60;1.03;;;;;;;;;;5096831;28;20685;-60
2022/12/14 04:37:05;;;;;;;0.73;0.43;;;;;;;;;;5103741;28;20232;-59
2022/12/14 04:39:37;;;;;;;1.27;0.90;;;;;;;;;;5108538;28;20667;-60
2022/12/14 04:42:08;;;;;;;1.40;0.90;;;;;;;;;;5098197;28;20210;-60
2022/12/14 04:44:37;;;;;;;0.87;0.87;;;;;;;;;;5088777;28;20214;-60
2022/12/14 04:47:06;;;;;;;3.57;1.43;;;;;;;;;;5096327;28;20210;-60
2022/12/14 04:49:39;;;;;;;0.40;0.40;;;;;;;;;;5088246;28;20204;-60
2022/12/14 04:52:08;;;;;;;3.33;0.70;;;;;;;;;;5097345;28;20328;-60
2022/12/14 04:54:38;;;;;;;2.73;0.73;;;;;;;;;;5098793;28;20210;-60
2022/12/14 04:57:09;;;;;;;0.60;0.60;;;;;;;;;;5104554;28;20203;-60
2022/12/14 04:59:36;;;;;;;1.40;1.13;;;;;;;;;;5107527;28;20589;-60
2022/12/14 05:02:08;;;;;;;6.27;1.07;;;;;;;;;;5104412;28;20202;-60
2022/12/14 05:04:41;;;;;;;1.63;0.70;;;;;;;;;;5092659;28;20206;-60
2022/12/14 05:07:12;;;;;;;0.77;0.77;;;;;;;;;;5094631;28;20210;-60
2022/12/14 05:09:41;;;;;;;1.57;0.90;;;;;;;;;;5092536;28;20568;-60
2022/12/14 05:12:13;;;;;;;3.03;1.87;;;;;;;;;;5098359;28;20234;-60
2022/12/14 05:14:42;;;;;;;2.00;1.63;;;;;;;;;;5096180;28;20307;-60
2022/12/14 05:17:09;;;;;;;0.83;0.20;;;;;;;;;;5094501;28;20214;-61
2022/12/14 05:19:37;;;;;;;0.40;0.40;;;;;;;;;;5091933;28;20206;-61
2022/12/14 05:22:05;;;;;;;3.13;1.20;;;;;;;;;;5093096;28;20206;-60
2022/12/14 05:24:33;;;;;;;1.63;1.53;;;;;;;;;;5108975;28;20216;-60
2022/12/14 05:27:00;;;;;;;1.00;1.00;;;;;;;;;;5090261;28;20221;-60
2022/12/14 05:29:28;;;;;;;2.83;1.70;;;;;;;;;;5091271;28;20210;-61
2022/12/14 05:31:55;;;;;;;2.13;1.83;;;;;;;;;;5091452;28;20235;-60
2022/12/14 05:34:23;;;;;;;2.00;1.43;;;;;;;;;;5093254;28;20303;-60
2022/12/14 05:36:50;;;;;;;0.30;0.30;;;;;;;;;;5098814;28;20213;-59
2022/12/14 05:39:17;;;;;;;2.70;0.83;;;;;;;;;;5092784;28;20216;-61
2022/12/14 05:41:44;;;;;;;1.43;1.33;;;;;;;;;;5091469;28;20568;-60
2022/12/14 05:44:11;;;;;;;1.13;0.90;;;;;;;;;;5093037;28;20209;-60
2022/12/14 05:46:40;;;;;;;0.27;0.27;;;;;;;;;;5107514;28;20206;-60
2022/12/14 05:49:07;;;;;;;1.27;1.17;;;;;;;;;;5099815;28;20693;-59
2022/12/14 05:51:34;;;;;;;3.13;1.10;;;;;;;;;;5089363;28;20767;-60
2022/12/14 05:54:01;;;;;;;1.90;1.50;;;;;;;;;;5092141;28;20725;-60
2022/12/14 05:56:28;;;;;;;2.07;0.97;;;;;;;;;;5105942;28;20217;-60
2022/12/14 05:58:55;;;;;;;2.90;1.00;;;;;;;;;;5102295;28;20767;-61
2022/12/14 06:01:23;;;;;;;2.23;1.80;;;;;;;;;;5102790;28;20190;-60
2022/12/14 06:03:53;;;;;;;1.27;1.07;;;;;;;;;;5093555;28;20715;-60
2022/12/14 06:06:21;;;;;;;1.90;1.40;;;;;;;;;;5091778;28;20268;-60
2022/12/14 06:08:48;;;;;;;1.73;1.50;;;;;;;;;;5091550;28;20601;-60
2022/12/14 06:11:16;;;;;;;1.53;1.43;;;;;;;;;;5090677;28;20676;-62
2022/12/14 06:13:44;;;;;;;0.10;0.10;;;;;;;;;;5106081;28;20298;-60
2022/12/14 06:16:13;;;;;;;1.80;1.47;;;;;;;;;;5107650;28;20584;-60
2022/12/14 06:18:44;;;;;;;0.53;0.53;;;;;;;;;;5109590;28;20200;-59
2022/12/14 06:21:12;;;;;;;1.77;1.67;;;;;;;;;;5108104;28;20223;-59
2022/12/14 06:23:40;;;;;;;1.23;1.23;;;;;;;;;;5108537;28;20214;-59
2022/12/14 06:26:08;;;;;;;1.70;1.10;;;;;;;;;;5097764;28;20210;-59
2022/12/14 06:28:35;;;;;;;1.67;1.50;;;;;;;;;;5109460;28;20208;-59
2022/12/14 06:31:03;;;;;;;1.63;1.53;;;;;;;;;;5099761;28;20551;-59
2022/12/14 06:33:30;;;;;;;5.57;1.57;;;;;;;;;;5105050;28;20224;-59
2022/12/14 06:35:57;;;;;;;3.13;1.97;;;;;;;;;;5108291;28;20305;-60
2022/12/14 06:38:26;;;;;;;1.20;1.20;;;;;;;;;;5108616;28;20226;-59
2022/12/14 06:40:53;;;;;;;2.47;1.03;;;;;;;;;;5099329;28;20216;-62
2022/12/14 06:43:20;;;;;;;1.37;0.90;;;;;;;;;;5102449;28;20202;-59
2022/12/14 06:45:47;;;;;;;0.50;0.50;;;;;;;;;;5105764;28;20282;-68
2022/12/14 06:48:14;;;;;;;0.70;0.70;;;;;;;;;;5096790;28;20239;-60
2022/12/14 06:50:41;;;;;;;1.37;1.00;;;;;;;;;;5093764;28;20212;-60
2022/12/14 06:53:11;;;;;;;1.70;1.23;;;;;;;;;;5088728;28;20241;-60
2022/12/14 06:55:40;;;;;;;1.33;1.33;;;;;;;;;;5089644;28;20239;-60
2022/12/14 06:58:07;;;;;;;1.43;0.90;;;;;;;;;;5089872;28;20200;-59
2022/12/14 07:00:34;;;;;;;1.63;1.53;;;;;;;;;;5089675;28;20235;-60
2022/12/14 07:03:01;;;;;;;1.07;1.07;;;;;;;;;;5095979;28;20222;-60
2022/12/14 07:05:28;;;;;;;1.70;1.60;;;;;;;;;;5109871;28;20564;-60
2022/12/14 07:07:56;;;;;;;1.63;1.50;;;;;;;;;;5109826;28;20239;-60
2022/12/14 07:10:23;;;;;;;1.90;1.37;;;;;;;;;;5110005;28;20201;-60
2022/12/14 07:12:51;;;;;;;2.03;1.03;;;;;;;;;;5108969;28;20867;-60
2022/12/14 07:15:18;;;;;;;1.40;1.30;;;;;;;;;;5091502;28;20211;-60
2022/12/14 07:17:46;;;;;;;2.80;0.97;;;;;;;;;;5106873;28;20251;-60
2022/12/14 07:20:13;;;;;;;1.37;1.27;;;;;;;;;;5108856;28;20206;-60
2022/12/14 07:22:40;;;;;;;3.07;1.97;;;;;;;;;;5108734;28;20210;-60
2022/12/14 07:25:08;;;;;;;2.10;1.77;;;;;;;;;;5108920;28;20620;-61
2022/12/14 07:27:35;;;;;;;0.90;0.90;;;;;;;;;;5108730;28;20210;-60
2022/12/14 07:30:03;;;;;;;5.20;1.87;;;;;;;;;;5108552;28;20218;-61
2022/12/14 07:32:31;;;;;;;5.13;1.47;;;;;;;;;;5108530;28;21055;-62
2022/12/14 07:34:58;;;;;;;3.03;2.03;;;;;;;;;;5108712;28;20301;-60
2022/12/14 07:37:25;;;;;;;1.47;1.17;;;;;;;;;;5108525;28;20701;-61
2022/12/14 07:39:52;;;;;;;1.43;1.37;;;;;;;;;;5108676;28;20197;-61
2022/12/14 07:42:19;;;;;;;2.37;1.67;;;;;;;;;;5108274;28;20831;-60
2022/12/14 07:44:46;;;;;;;3.47;1.77;;;;;;;;;;5107602;28;20626;-61
2022/12/14 07:47:14;;;;;;;5.63;1.87;;;;;;;;;;5108111;28;20232;-60
2022/12/14 07:49:42;;;;;;;2.13;1.93;;;;;;;;;;5108292;28;20214;-61
2022/12/14 07:52:09;;;;;;;2.80;1.70;;;;;;;;;;5108189;28;20246;-61
2022/12/14 07:54:36;;;;;;;2.20;1.90;;;;;;;;;;5108091;28;20772;-60
2022/12/14 07:57:03;;;;;;;3.90;2.47;;;;;;;;;;5108359;28;20207;-61
2022/12/14 07:59:30;;;;;;;2.60;2.33;;;;;;;;;;5108236;28;20229;-61
2022/12/14 08:01:57;;;;;;;1.10;1.10;;;;;;;;;;5108133;28;20293;-61
2022/12/14 08:04:25;;;;;;;2.53;1.90;;;;;;;;;;5108642;28;20235;-60
2022/12/14 08:06:53;;;;;;;2.67;2.00;;;;;;;;;;5108661;28;20207;-61
2022/12/14 08:09:20;;;;;;;5.67;1.70;;;;;;;;;;5108516;28;20236;-61
2022/12/14 08:11:47;;;;;;;3.20;2.00;;;;;;;;;;5108264;28;20206;-60
2022/12/14 08:14:15;;;;;;;1.73;1.60;;;;;;;;;;5100651;28;20216;-60
2022/12/14 08:16:43;;;;;;;2.20;1.83;;;;;;;;;;5088131;28;20305;-60
2022/12/14 08:19:11;;;;;;;2.40;2.30;;;;;;;;;;5088268;28;20208;-61
2022/12/14 08:21:40;;;;;;;1.80;1.70;;;;;;;;;;5107096;28;20261;-60
2022/12/14 08:24:07;;;;;;;0.83;0.83;;;;;;;;;;5100831;28;20215;-60
2022/12/14 08:26:34;;;;;;;1.03;1.00;;;;;;;;;;5088644;28;20199;-60
2022/12/14 08:29:01;;;;;;;1.80;1.17;;;;;;;;;;5105814;28;20224;-60
2022/12/14 08:31:29;;;;;;;1.73;1.57;;;;;;;;;;5096628;28;20199;-60
2022/12/14 08:33:56;;;;;;;0.40;0.40;;;;;;;;;;5096167;28;20240;-59
2022/12/14 08:36:25;;;;;;;0.10;0.10;;;;;;;;;;5087512;28;20604;-61
2022/12/14 08:38:54;;;;;;;1.07;1.07;;;;;;;;;;5098894;28;20195;-61
2022/12/14 08:41:21;;;;;;;0.87;0.80;;;;;;;;;;5106381;28;20216;-62
2022/12/14 08:43:50;;;;;;;1.80;1.70;;;;;;;;;;5092667;28;20214;-62
2022/12/14 08:46:17;;;;;;;0.63;0.63;;;;;;;;;;5099276;28;20212;-68
2022/12/14 08:48:44;;;;;;;2.00;1.67;;;;;;;;;;5100116;28;20259;-61
2022/12/14 08:51:11;;;;;;;1.40;1.33;;;;;;;;;;5097256;28;20206;-61
2022/12/14 08:53:39;;;;;;;1.53;1.13;;;;;;;;;;5087770;28;20227;-64
2022/12/14 08:56:10;;;;;;;1.97;1.53;;;;;;;;;;5106120;28;20265;-62
2022/12/14 08:58:38;;;;;;;0.30;0.30;;;;;;;;;;5106657;28;20197;-61
2022/12/14 09:01:06;;;;;;;2.83;1.90;;;;;;;;;;5104505;28;20210;-61
2022/12/14 09:03:33;;;;;;;1.10;1.10;;;;;;;;;;5087658;28;20199;-59
2022/12/14 09:06:04;;;;;;;2.13;1.87;;;;;;;;;;5087738;28;20236;-61
2022/12/14 09:08:31;;;;;;;3.33;2.50;;;;;;;;;;5107446;28;20253;-65
2022/12/14 09:10:59;;;;;;;2.77;1.67;;;;;;;;;;5094029;28;20216;-59
2022/12/14 09:13:28;;;;;;;4.33;2.43;;;;;;;;;;5097969;28;20238;-60
2022/12/14 09:15:58;;;;;;;3.73;2.27;;;;;;;;;;5105006;28;20210;-59
2022/12/14 09:18:26;;;;;;;0.90;0.90;;;;;;;;;;5105464;28;20207;-59
2022/12/14 09:20:54;;;;;;;4.60;3.03;;;;;;;;;;5097060;28;20803;-60
2022/12/14 09:23:22;;;;;;;1.30;1.00;;;;;;;;;;5105092;28;20229;-60
2022/12/14 09:26:21;;;;;;;3.63;0.80;;;;;;;;;;5106630;28;20200;-60
2022/12/14 09:28:50;;;;;;;1.17;1.13;;;;;;;;;;5107058;28;20674;-60
2022/12/14 09:31:18;;;;;;;4.67;1.33;;;;;;;;;;5107131;28;20217;-60
2022/12/14 09:33:45;;;;;;;0.33;0.33;;;;;;;;;;5107041;28;20230;-60
2022/12/14 09:36:13;;;;;;;7.27;1.70;;;;;;;;;;5107130;28;20213;-59
2022/12/14 09:38:40;;;;;;;1.97;1.83;;;;;;;;;;5106914;28;20267;-60
2022/12/14 09:41:08;;;;;;;2.80;1.90;;;;;;;;;;5106856;28;20215;-60
2022/12/14 09:43:41;;;;;;;1.27;1.23;;;;;;;;;;5107010;28;20873;-60
2022/12/14 09:46:16;;;;;;;1.70;1.30;;;;;;;;;;5106736;28;20626;-60
2022/12/14 09:48:43;;;;;;;1.53;0.97;;;;;;;;;;5110219;28;20214;-60
2022/12/14 09:51:14;;;;;;;2.50;1.53;;;;;;;;;;5110622;28;20214;-60
2022/12/14 09:53:41;;;;;;;3.17;1.73;;;;;;;;;;5110388;27;20240;-60
2022/12/14 09:56:10;;;;;;;2.43;0.80;;;;;;;;;;5110345;28;20728;-60
2022/12/14 09:58:38;;;;;;;2.63;1.70;;;;;;;;;;5110517;28;20212;-60
2022/12/14 10:01:21;;;;;;;2.27;2.10;;;;;;;;;;5111104;28;20221;-60
2022/12/14 10:03:56;;;;;;;1.77;1.43;;;;;;;;;;5110970;28;20213;-60
2022/12/14 10:06:30;;;;;;;3.40;0.70;;;;;;;;;;5110894;28;20211;-60
2022/12/14 10:09:01;;;;;;;3.20;1.10;;;;;;;;;;5110190;28;20235;-60
2022/12/14 10:11:32;;;;;;;1.27;1.07;;;;;;;;;;5110356;27;20268;-60
2022/12/14 10:14:11;;;;;;;1.27;1.20;;;;;;;;;;5110150;28;20239;-60
2022/12/14 10:16:41;;;;;;;1.27;0.77;;;;;;;;;;5110252;28;20210;-60
2022/12/14 10:19:18;;;;;;;0.40;0.40;;;;;;;;;;5110714;28;20210;-60
2022/12/14 10:21:47;;;;;;;2.97;1.57;;;;;;;;;;5110714;28;20270;-60
2022/12/14 10:24:18;;;;;;;1.90;1.53;;;;;;;;;;5110757;28;20210;-60
2022/12/14 10:26:48;;;;;;;1.03;1.03;;;;;;;;;;5110427;28;20212;-60
2022/12/14 10:29:18;;;;;;;2.10;1.87;;;;;;;;;;5110506;28;20222;-60
2022/12/14 10:31:50;;;;;;;2.60;0.67;;;;;;;;;;5110190;28;20226;-60
2022/12/14 10:34:21;;;;;;;5.57;1.37;;;;;;;;;;5110252;28;20225;-60
2022/12/14 10:36:51;;;;;;;2.00;1.37;;;;;;;;;;5110362;28;20203;-60
2022/12/14 10:39:22;;;;;;;5.13;2.63;;;;;;;;;;5110120;28;20207;-60
2022/12/14 10:41:53;;;;;;;1.10;1.10;;;;;;;;;;5110147;27;20672;-60
2022/12/14 10:44:23;;;;;;;4.17;1.37;;;;;;;;;;5110140;28;20719;-60
2022/12/14 10:46:53;;;;;;;1.23;1.20;;;;;;;;;;5109946;28;20280;-60
2022/12/14 10:49:25;;;;;;;0.37;0.37;;;;;;;;;;5103489;28;20211;-60
2022/12/14 10:51:55;;;;;;;2.17;1.20;;;;;;;;;;5101356;28;20213;-61
2022/12/14 10:54:26;;;;;;;0.83;0.83;;;;;;;;;;5103854;28;20228;-59
2022/12/14 10:56:53;;;;;;;0.93;0.77;;;;;;;;;;5111146;27;20199;-59
2022/12/14 10:59:31;;;;;;;1.27;1.20;;;;;;;;;;5112884;27;20229;-59
2022/12/14 11:02:01;;;;;;;8.90;5.15;;;;;;;;;;5088355;28;20811;-60
2022/12/14 11:04:34;;;;;;;5.23;2.80;;;;;;;;;;5089548;28;20289;-59
2022/12/14 11:07:03;;;;;;;1.27;1.17;;;;;;;;;;5110201;28;20309;-59
2022/12/14 11:09:30;;;;;;;7.20;2.93;;;;;;;;;;5109561;28;20239;-59
2022/12/14 11:12:02;;;;;;;1.10;1.00;;;;;;;;;;5088808;28;20238;-60
2022/12/14 11:14:29;;;;;;;3.20;1.87;;;;;;;;;;5090362;28;20733;-60
2022/12/14 11:16:56;;;;;;;2.30;1.83;;;;;;;;;;5103305;28;20211;-59
2022/12/14 11:19:25;;;;;;;1.40;1.33;;;;;;;;;;5105747;28;20825;-59
2022/12/14 11:22:05;;;;;;;1.63;1.53;;;;;;;;;;5107382;28;20202;-59
2022/12/14 11:24:34;;;;;;;0.67;0.67;;;;;;;;;;5107802;28;20198;-59
2022/12/14 11:27:04;;;;;;;1.57;1.30;;;;;;;;;;5109491;28;20206;-59
2022/12/14 11:29:33;;;;;;;1.47;1.37;;;;;;;;;;5105410;28;20210;-62
2022/12/14 11:32:00;;;;;;;4.60;1.80;;;;;;;;;;5088957;28;20214;-60
2022/12/14 11:34:30;;;;;;;1.40;0.73;;;;;;;;;;5095140;28;20215;-60
2022/12/14 11:37:11;;;;;;;1.97;1.53;;;;;;;;;;5099867;28;20219;-60
2022/12/14 11:39:40;;;;;;;2.07;1.87;;;;;;;;;;5094560;28;20207;-60
2022/12/14 11:42:15;;;;;;;1.40;0.97;;;;;;;;;;5107552;28;20214;-61
2022/12/14 11:44:43;;;;;;;1.10;0.67;;;;;;;;;;5107015;28;20199;-61
2022/12/14 11:47:14;;;;;;;1.73;0.90;;;;;;;;;;5108696;28;20239;-60
2022/12/14 11:49:44;;;;;;;0.43;0.40;;;;;;;;;;5107073;28;20199;-61
2022/12/14 11:52:13;;;;;;;4.60;3.37;;;;;;;;;;5106804;27;20581;-61
2022/12/14 11:54:41;;;;;;;0.97;0.57;;;;;;;;;;5089663;28;20228;-63
2022/12/14 11:57:10;;;;;;;1.90;1.77;;;;;;;;;;5088578;28;20223;-62
2022/12/14 11:59:39;;;;;;;1.63;1.60;;;;;;;;;;5091640;28;20269;-61
2022/12/14 12:02:08;;;;;;;2.77;2.17;;;;;;;;;;5091303;28;20200;-60
2022/12/14 12:04:42;;;;;;;1.47;1.37;;;;;;;;;;5108649;28;20259;-61
2022/12/14 12:07:14;;;;;;;0.80;0.80;;;;;;;;;;5107061;28;20204;-60
2022/12/14 12:09:42;;;;;;;1.33;1.17;;;;;;;;;;5107460;28;20249;-61
2022/12/14 12:12:16;;;;;;;1.83;0.63;;;;;;;;;;5094239;28;20624;-61
2022/12/14 12:14:45;;;;;;;0.20;0.20;;;;;;;;;;5093433;28;20228;-61
2022/12/14 12:17:18;;;;;;;2.20;1.43;;;;;;;;;;5102252;28;20677;-61
2022/12/14 12:19:46;;;;;;;4.00;2.93;;;;;;;;;;5096163;28;20558;-61
2022/12/14 12:22:15;;;;;;;4.70;0.87;;;;;;;;;;5101961;28;20210;-63
2022/12/14 12:24:45;;;;;;;1.47;0.67;;;;;;;;;;5106469;28;20211;-62
2022/12/14 12:27:14;;;;;;;1.27;1.17;;;;;;;;;;5101528;28;20213;-62
2022/12/14 12:29:43;;;;;;;2.73;1.30;;;;;;;;;;5101671;28;20234;-60
2022/12/14 12:32:13;;;;;;;0.37;0.37;;;;;;;;;;5107998;28;20682;-62
2022/12/14 12:34:44;;;;;;;2.40;1.87;;;;;;;;;;5096972;28;20228;-64
2022/12/14 12:37:14;;;;;;;2.50;2.30;;;;;;;;;;5108221;28;20211;-62
2022/12/14 12:39:44;;;;;;;1.27;1.27;;;;;;;;;;5105580;28;20220;-61
2022/12/14 12:42:17;;;;;;;0.77;0.77;;;;;;;;;;5095480;28;20253;-61
2022/12/14 12:44:46;;;;;;;1.30;0.67;;;;;;;;;;5100131;28;20215;-61
2022/12/14 12:47:16;;;;;;;0.43;0.20;;;;;;;;;;5106936;28;20225;-60
2022/12/14 12:49:43;;;;;;;0.97;0.97;;;;;;;;;;5105056;28;20236;-62
2022/12/14 12:52:16;;;;;;;0.70;0.70;;;;;;;;;;5087090;28;20220;-61
2022/12/14 12:54:51;;;;;;;1.47;1.37;;;;;;;;;;5087575;28;20234;-61
2022/12/14 12:57:19;;;;;;;1.30;1.00;;;;;;;;;;5087659;28;20215;-62
2022/12/14 12:59:47;;;;;;;1.80;1.70;;;;;;;;;;5106318;28;20215;-60
2022/12/14 13:02:18;;;;;;;1.70;1.10;;;;;;;;;;5107352;28;20217;-60
2022/12/14 13:04:47;;;;;;;2.47;2.37;;;;;;;;;;5108146;28;20214;-62
2022/12/14 13:07:19;;;;;;;2.33;1.30;;;;;;;;;;5091698;28;20287;-63
2022/12/14 13:09:50;;;;;;;33.67;1.90;;;;;;;;;;5087847;28;20240;-61
2022/12/14 13:12:23;;;;;;;0.30;0.20;;;;;;;;;;5097251;28;20204;-61
2022/12/14 13:14:51;;;;;;;0.87;0.50;;;;;;;;;;5095293;28;20728;-60
2022/12/14 13:17:25;;;;;;;2.83;1.10;;;;;;;;;;5093597;28;20208;-62
2022/12/14 13:19:53;;;;;;;2.73;1.33;;;;;;;;;;5090458;28;20230;-62
2022/12/14 13:22:23;;;;;;;0.83;0.83;;;;;;;;;;5107025;28;20203;-63
2022/12/14 13:24:52;;;;;;;0.63;0.47;;;;;;;;;;5111788;27;20831;-60
2022/12/14 13:27:32;;;;;;;1.50;0.90;;;;;;;;;;5111122;28;20215;-64
2022/12/14 13:30:10;;;;;;;0.70;0.70;;;;;;;;;;5111721;28;20229;-61
2022/12/14 13:32:45;;;;;;;1.83;1.73;;;;;;;;;;5098751;28;20219;-62
2022/12/14 13:35:20;;;;;;;1.80;1.80;;;;;;;;;;5110350;28;20673;-60
2022/12/14 13:37:58;;;;;;;2.97;1.50;;;;;;;;;;5090786;28;20297;-63
2022/12/14 13:40:34;;;;;;;1.07;1.07;;;;;;;;;;5096548;28;20214;-64
2022/12/14 13:43:07;;;;;;;4.97;2.27;;;;;;;;;;5090104;28;20219;-62
2022/12/14 13:45:37;;;;;;;8.43;4.97;;;;;;;;;;5108620;28;20210;-62
2022/12/14 13:48:07;;;;;;;4.70;3.93;;;;;;;;;;5090183;28;20211;-62
2022/12/14 13:50:37;;;;;;;5.97;2.07;;;;;;;;;;5091672;28;20207;-61
2022/12/14 13:53:06;;;;;;;3.37;2.50;;;;;;;;;;5106152;28;20877;-62
2022/12/14 13:55:35;;;;;;;1.03;1.03;;;;;;;;;;5105985;28;20312;-62
2022/12/14 13:58:10;;;;;;;0.70;0.70;;;;;;;;;;5088146;28;20212;-60
2022/12/14 14:00:57;;;;;;;1.13;0.97;;;;;;;;;;5089626;28;20215;-60
2022/12/14 14:03:47;;;;;;;0.67;0.67;;;;;;;;;;5094557;28;20231;-61
2022/12/14 14:06:19;;;;;;;3.53;1.93;;;;;;;;;;5094248;28;20584;-61
2022/12/14 14:08:47;;;;;;;2.07;1.83;;;;;;;;;;5126646;27;20238;-61
2022/12/14 14:11:33;;;;;;;1.20;1.20;;;;;;;;;;5130563;27;20209;-64
2022/12/14 14:14:15;;;;;;;3.77;2.07;;;;;;;;;;5096700;28;20227;-61
2022/12/14 14:16:44;;;;;;;2.50;1.67;;;;;;;;;;5098042;28;20216;-61
2022/12/14 14:19:18;;;;;;;1.60;0.60;;;;;;;;;;5104596;28;20208;-62
2022/12/14 14:21:46;;;;;;;1.10;1.00;;;;;;;;;;5104471;28;20218;-62
2022/12/14 14:24:20;;;;;;;3.87;2.07;;;;;;;;;;5105480;28;20209;-61
2022/12/14 14:26:58;;;;;;;5.63;2.53;;;;;;;;;;5108461;28;20346;-61
2022/12/14 14:29:28;;;;;;;2.10;2.00;;;;;;;;;;5110569;28;20207;-62
2022/12/14 14:31:56;;;;;;;1.90;1.80;;;;;;;;;;5103523;28;20313;-62
2022/12/14 14:34:25;;;;;;;1.80;1.70;;;;;;;;;;5089200;28;20232;-62
2022/12/14 14:36:53;;;;;;;2.37;2.13;;;;;;;;;;5089819;28;20216;-61
2022/12/14 14:39:28;;;;;;;3.60;2.30;;;;;;;;;;5093737;28;20204;-61
2022/12/14 14:41:56;;;;;;;6.73;2.83;;;;;;;;;;5105001;28;20219;-61
2022/12/14 14:44:25;;;;;;;7.03;1.60;;;;;;;;;;5108501;28;20305;-60
2022/12/14 14:46:54;;;;;;;3.43;2.83;;;;;;;;;;5088608;28;20702;-61
2022/12/14 14:49:23;;;;;;;3.03;2.63;;;;;;;;;;5089239;28;20213;-61
2022/12/14 14:51:50;;;;;;;0.90;0.90;;;;;;;;;;5103440;28;20542;-61
2022/12/14 14:54:27;;;;;;;8.17;3.17;;;;;;;;;;5098840;28;20240;-61
2022/12/14 14:56:55;;;;;;;2.77;2.17;;;;;;;;;;5030524;27;20271;-60
2022/12/14 14:59:40;;;;;;;2.30;2.10;;;;;;;;;;5028338;28;20671;-61
2022/12/14 15:02:22;;;;;;;2.13;1.93;;;;;;;;;;5046163;28;20300;-61
2022/12/14 15:04:51;;;;;;;2.87;1.37;;;;;;;;;;5030048;28;20233;-61
2022/12/14 15:07:22;;;;;;;11.17;3.47;;;;;;;;;;5047644;28;20210;-61
2022/12/14 15:09:51;;;;;;;2.80;2.50;;;;;;;;;;5035188;28;20238;-61
2022/12/14 15:12:22;;;;;;;8.33;2.30;;;;;;;;;;5032625;28;20818;-61